sensor_id;sensor_type;location;lat;lon;timestamp;P1;durP1;ratioP1;P2;durP2;ratioP2
31206;SDS011;17834;52.992;8.856;2023-07-02T00:00:51;7.75;;;3.40;;
31206;SDS011;17834;52.992;8.856;2023-07-02T00:03:17;8.68;;;4.32;;
31206;SDS011;17834;52.992;8.856;2023-07-02T00:05:46;6.60;;;3.65;;
31206;SDS011;17834;52.992;8.856;2023-07-02T00:08:14;9.32;;;3.95;;
31206;SDS011;17834;52.992;8.856;2023-07-02T00:10:40;9.07;;;4.20;;
31206;SDS011;17834;52.992;8.856;2023-07-02T00:13:06;8.30;;;4.13;;
31206;SDS011;17834;52.992;8.856;2023-07-02T00:15:32;4.80;;;3.75;;
31206;SDS011;17834;52.992;8.856;2023-07-02T00:17:57;5.22;;;3.65;;
31206;SDS011;17834;52.992;8.856;2023-07-02T00:20:23;5.88;;;3.70;;
31206;SDS011;17834;52.992;8.856;2023-07-02T00:22:48;6.47;;;4.18;;
31206;SDS011;17834;52.992;8.856;2023-07-02T00:25:14;6.20;;;4.20;;
31206;SDS011;17834;52.992;8.856;2023-07-02T00:27:40;9.15;;;3.58;;
31206;SDS011;17834;52.992;8.856;2023-07-02T00:30:06;6.13;;;4.03;;
31206;SDS011;17834;52.992;8.856;2023-07-02T00:32:32;7.60;;;3.33;;
31206;SDS011;17834;52.992;8.856;2023-07-02T00:34:57;5.60;;;3.28;;
31206;SDS011;17834;52.992;8.856;2023-07-02T00:37:23;6.10;;;3.40;;
31206;SDS011;17834;52.992;8.856;2023-07-02T00:39:49;7.32;;;4.07;;
31206;SDS011;17834;52.992;8.856;2023-07-02T00:42:15;8.38;;;3.92;;
31206;SDS011;17834;52.992;8.856;2023-07-02T00:44:41;8.10;;;3.85;;
31206;SDS011;17834;52.992;8.856;2023-07-02T00:47:10;7.00;;;3.88;;
31206;SDS011;17834;52.992;8.856;2023-07-02T00:49:36;5.78;;;3.33;;
31206;SDS011;17834;52.992;8.856;2023-07-02T00:52:02;7.40;;;3.83;;
31206;SDS011;17834;52.992;8.856;2023-07-02T00:54:28;5.38;;;3.83;;
31206;SDS011;17834;52.992;8.856;2023-07-02T00:56:54;6.63;;;3.40;;
31206;SDS011;17834;52.992;8.856;2023-07-02T00:59:20;5.68;;;3.40;;
31206;SDS011;17834;52.992;8.856;2023-07-02T01:01:46;7.13;;;3.25;;
31206;SDS011;17834;52.992;8.856;2023-07-02T01:04:16;7.30;;;3.78;;
31206;SDS011;17834;52.992;8.856;2023-07-02T01:06:42;6.45;;;3.83;;
31206;SDS011;17834;52.992;8.856;2023-07-02T01:09:08;4.22;;;3.35;;
31206;SDS011;17834;52.992;8.856;2023-07-02T01:11:36;8.32;;;4.13;;
31206;SDS011;17834;52.992;8.856;2023-07-02T01:16:55;6.78;;;3.38;;
31206;SDS011;17834;52.992;8.856;2023-07-02T01:22:19;8.38;;;4.47;;
31206;SDS011;17834;52.992;8.856;2023-07-02T01:24:47;7.03;;;4.10;;
31206;SDS011;17834;52.992;8.856;2023-07-02T01:27:13;9.90;;;3.75;;
31206;SDS011;17834;52.992;8.856;2023-07-02T01:29:39;5.15;;;3.63;;
31206;SDS011;17834;52.992;8.856;2023-07-02T01:32:05;7.45;;;3.63;;
31206;SDS011;17834;52.992;8.856;2023-07-02T01:34:31;15.27;;;3.97;;
31206;SDS011;17834;52.992;8.856;2023-07-02T01:36:56;6.35;;;3.80;;
31206;SDS011;17834;52.992;8.856;2023-07-02T01:39:22;5.85;;;3.55;;
31206;SDS011;17834;52.992;8.856;2023-07-02T01:41:51;8.52;;;4.18;;
31206;SDS011;17834;52.992;8.856;2023-07-02T01:44:18;7.78;;;4.10;;
31206;SDS011;17834;52.992;8.856;2023-07-02T01:46:44;9.48;;;3.80;;
31206;SDS011;17834;52.992;8.856;2023-07-02T01:49:13;11.13;;;3.85;;
31206;SDS011;17834;52.992;8.856;2023-07-02T01:51:49;6.60;;;4.13;;
31206;SDS011;17834;52.992;8.856;2023-07-02T01:54:16;7.50;;;4.25;;
31206;SDS011;17834;52.992;8.856;2023-07-02T01:56:42;6.38;;;4.10;;
31206;SDS011;17834;52.992;8.856;2023-07-02T01:59:07;6.40;;;3.45;;
31206;SDS011;17834;52.992;8.856;2023-07-02T02:01:33;5.80;;;3.20;;
31206;SDS011;17834;52.992;8.856;2023-07-02T02:03:59;10.77;;;4.78;;
31206;SDS011;17834;52.992;8.856;2023-07-02T02:06:24;7.53;;;3.42;;
31206;SDS011;17834;52.992;8.856;2023-07-02T02:08:50;8.73;;;3.47;;
31206;SDS011;17834;52.992;8.856;2023-07-02T02:11:15;9.80;;;3.75;;
31206;SDS011;17834;52.992;8.856;2023-07-02T02:13:41;8.25;;;3.53;;
31206;SDS011;17834;52.992;8.856;2023-07-02T02:16:06;8.77;;;3.20;;
31206;SDS011;17834;52.992;8.856;2023-07-02T02:18:32;8.20;;;3.85;;
31206;SDS011;17834;52.992;8.856;2023-07-02T02:20:57;7.78;;;3.92;;
31206;SDS011;17834;52.992;8.856;2023-07-02T02:23:23;8.65;;;3.63;;
31206;SDS011;17834;52.992;8.856;2023-07-02T02:25:48;9.10;;;3.78;;
31206;SDS011;17834;52.992;8.856;2023-07-02T02:28:14;9.98;;;4.32;;
31206;SDS011;17834;52.992;8.856;2023-07-02T02:30:39;7.13;;;3.60;;
31206;SDS011;17834;52.992;8.856;2023-07-02T02:33:05;10.07;;;3.75;;
31206;SDS011;17834;52.992;8.856;2023-07-02T02:35:30;13.55;;;3.60;;
31206;SDS011;17834;52.992;8.856;2023-07-02T02:37:56;11.20;;;4.25;;
31206;SDS011;17834;52.992;8.856;2023-07-02T02:40:22;14.90;;;4.53;;
31206;SDS011;17834;52.992;8.856;2023-07-02T02:42:47;18.23;;;5.20;;
31206;SDS011;17834;52.992;8.856;2023-07-02T02:45:12;7.22;;;3.75;;
31206;SDS011;17834;52.992;8.856;2023-07-02T02:47:38;10.70;;;4.35;;
31206;SDS011;17834;52.992;8.856;2023-07-02T02:50:05;7.97;;;4.25;;
31206;SDS011;17834;52.992;8.856;2023-07-02T02:52:31;9.38;;;4.18;;
31206;SDS011;17834;52.992;8.856;2023-07-02T02:54:57;10.50;;;4.25;;
31206;SDS011;17834;52.992;8.856;2023-07-02T02:57:22;11.20;;;4.03;;
31206;SDS011;17834;52.992;8.856;2023-07-02T02:59:47;12.02;;;4.30;;
31206;SDS011;17834;52.992;8.856;2023-07-02T03:02:13;9.57;;;4.47;;
31206;SDS011;17834;52.992;8.856;2023-07-02T03:04:38;9.98;;;4.50;;
31206;SDS011;17834;52.992;8.856;2023-07-02T03:07:05;12.90;;;4.03;;
31206;SDS011;17834;52.992;8.856;2023-07-02T03:09:31;13.45;;;5.28;;
31206;SDS011;17834;52.992;8.856;2023-07-02T03:11:57;9.75;;;4.13;;
31206;SDS011;17834;52.992;8.856;2023-07-02T03:14:23;24.55;;;5.00;;
31206;SDS011;17834;52.992;8.856;2023-07-02T03:16:48;10.13;;;4.40;;
31206;SDS011;17834;52.992;8.856;2023-07-02T03:19:14;10.68;;;4.50;;
31206;SDS011;17834;52.992;8.856;2023-07-02T03:21:41;7.63;;;4.20;;
31206;SDS011;17834;52.992;8.856;2023-07-02T03:24:08;12.48;;;5.20;;
31206;SDS011;17834;52.992;8.856;2023-07-02T03:26:35;8.10;;;4.53;;
31206;SDS011;17834;52.992;8.856;2023-07-02T03:29:00;14.27;;;4.93;;
31206;SDS011;17834;52.992;8.856;2023-07-02T03:31:26;11.95;;;4.45;;
31206;SDS011;17834;52.992;8.856;2023-07-02T03:33:51;10.80;;;4.40;;
31206;SDS011;17834;52.992;8.856;2023-07-02T03:36:17;11.02;;;4.78;;
31206;SDS011;17834;52.992;8.856;2023-07-02T03:38:42;10.02;;;4.50;;
31206;SDS011;17834;52.992;8.856;2023-07-02T03:41:08;11.32;;;4.30;;
31206;SDS011;17834;52.992;8.856;2023-07-02T03:43:33;8.55;;;4.13;;
31206;SDS011;17834;52.992;8.856;2023-07-02T03:45:59;13.43;;;4.70;;
31206;SDS011;17834;52.992;8.856;2023-07-02T03:48:24;8.45;;;4.50;;
31206;SDS011;17834;52.992;8.856;2023-07-02T03:50:50;14.43;;;4.90;;
31206;SDS011;17834;52.992;8.856;2023-07-02T03:53:15;8.68;;;4.25;;
31206;SDS011;17834;52.992;8.856;2023-07-02T03:55:41;8.90;;;4.85;;
31206;SDS011;17834;52.992;8.856;2023-07-02T03:58:06;12.48;;;4.95;;
31206;SDS011;17834;52.992;8.856;2023-07-02T04:00:32;13.77;;;5.18;;
31206;SDS011;17834;52.992;8.856;2023-07-02T04:02:57;12.98;;;5.03;;
31206;SDS011;17834;52.992;8.856;2023-07-02T04:05:23;11.65;;;4.40;;
31206;SDS011;17834;52.992;8.856;2023-07-02T04:07:48;10.27;;;4.72;;
31206;SDS011;17834;52.992;8.856;2023-07-02T04:10:14;10.40;;;4.32;;
31206;SDS011;17834;52.992;8.856;2023-07-02T04:12:39;12.63;;;5.07;;
31206;SDS011;17834;52.992;8.856;2023-07-02T04:15:05;8.88;;;4.18;;
31206;SDS011;17834;52.992;8.856;2023-07-02T04:17:31;9.20;;;4.40;;
31206;SDS011;17834;52.992;8.856;2023-07-02T04:19:57;12.00;;;4.63;;
31206;SDS011;17834;52.992;8.856;2023-07-02T04:22:24;13.75;;;5.53;;
31206;SDS011;17834;52.992;8.856;2023-07-02T04:24:50;12.90;;;5.28;;
31206;SDS011;17834;52.992;8.856;2023-07-02T04:27:15;11.52;;;5.18;;
31206;SDS011;17834;52.992;8.856;2023-07-02T04:29:44;14.18;;;5.75;;
31206;SDS011;17834;52.992;8.856;2023-07-02T04:32:10;14.05;;;5.32;;
31206;SDS011;17834;52.992;8.856;2023-07-02T04:34:36;13.82;;;4.55;;
31206;SDS011;17834;52.992;8.856;2023-07-02T04:37:04;10.48;;;4.95;;
31206;SDS011;17834;52.992;8.856;2023-07-02T04:39:30;10.23;;;4.85;;
31206;SDS011;17834;52.992;8.856;2023-07-02T04:41:56;12.52;;;4.40;;
31206;SDS011;17834;52.992;8.856;2023-07-02T04:44:21;14.25;;;4.47;;
31206;SDS011;17834;52.992;8.856;2023-07-02T04:46:54;11.88;;;4.60;;
31206;SDS011;17834;52.992;8.856;2023-07-02T04:49:26;12.52;;;4.70;;
31206;SDS011;17834;52.992;8.856;2023-07-02T04:51:51;7.68;;;3.65;;
31206;SDS011;17834;52.992;8.856;2023-07-02T04:54:18;9.75;;;4.07;;
31206;SDS011;17834;52.992;8.856;2023-07-02T04:56:47;18.35;;;4.28;;
31206;SDS011;17834;52.992;8.856;2023-07-02T04:59:13;11.77;;;4.13;;
31206;SDS011;17834;52.992;8.856;2023-07-02T05:01:39;8.65;;;3.40;;
31206;SDS011;17834;52.992;8.856;2023-07-02T05:04:05;9.88;;;4.35;;
31206;SDS011;17834;52.992;8.856;2023-07-02T05:06:30;16.38;;;5.07;;
31206;SDS011;17834;52.992;8.856;2023-07-02T05:08:56;10.00;;;4.03;;
31206;SDS011;17834;52.992;8.856;2023-07-02T05:11:21;16.80;;;4.65;;
31206;SDS011;17834;52.992;8.856;2023-07-02T05:13:47;14.60;;;4.63;;
31206;SDS011;17834;52.992;8.856;2023-07-02T05:16:12;21.00;;;5.03;;
31206;SDS011;17834;52.992;8.856;2023-07-02T05:18:39;14.48;;;5.40;;
31206;SDS011;17834;52.992;8.856;2023-07-02T05:21:04;15.50;;;4.13;;
31206;SDS011;17834;52.992;8.856;2023-07-02T05:23:30;18.08;;;5.30;;
31206;SDS011;17834;52.992;8.856;2023-07-02T05:25:55;16.30;;;4.65;;
31206;SDS011;17834;52.992;8.856;2023-07-02T05:28:21;11.32;;;5.03;;
31206;SDS011;17834;52.992;8.856;2023-07-02T05:30:46;12.52;;;4.10;;
31206;SDS011;17834;52.992;8.856;2023-07-02T05:33:12;15.88;;;5.10;;
31206;SDS011;17834;52.992;8.856;2023-07-02T05:35:38;16.92;;;4.90;;
31206;SDS011;17834;52.992;8.856;2023-07-02T05:38:03;16.92;;;5.20;;
31206;SDS011;17834;52.992;8.856;2023-07-02T05:40:29;16.10;;;5.05;;
31206;SDS011;17834;52.992;8.856;2023-07-02T05:42:54;17.50;;;5.38;;
31206;SDS011;17834;52.992;8.856;2023-07-02T05:45:20;17.15;;;4.85;;
31206;SDS011;17834;52.992;8.856;2023-07-02T05:47:45;13.23;;;4.65;;
31206;SDS011;17834;52.992;8.856;2023-07-02T05:50:11;15.00;;;5.10;;
31206;SDS011;17834;52.992;8.856;2023-07-02T05:52:36;19.73;;;5.35;;
31206;SDS011;17834;52.992;8.856;2023-07-02T05:55:02;16.42;;;4.97;;
31206;SDS011;17834;52.992;8.856;2023-07-02T05:57:28;16.17;;;4.80;;
31206;SDS011;17834;52.992;8.856;2023-07-02T05:59:53;14.90;;;4.82;;
31206;SDS011;17834;52.992;8.856;2023-07-02T06:02:19;19.83;;;5.07;;
31206;SDS011;17834;52.992;8.856;2023-07-02T06:04:44;13.07;;;4.63;;
31206;SDS011;17834;52.992;8.856;2023-07-02T06:07:09;17.05;;;5.03;;
31206;SDS011;17834;52.992;8.856;2023-07-02T06:09:35;12.13;;;4.95;;
31206;SDS011;17834;52.992;8.856;2023-07-02T06:12:00;14.23;;;5.00;;
31206;SDS011;17834;52.992;8.856;2023-07-02T06:14:26;15.30;;;5.35;;
31206;SDS011;17834;52.992;8.856;2023-07-02T06:16:52;18.00;;;5.35;;
31206;SDS011;17834;52.992;8.856;2023-07-02T06:19:17;12.93;;;4.35;;
31206;SDS011;17834;52.992;8.856;2023-07-02T06:21:43;14.60;;;4.80;;
31206;SDS011;17834;52.992;8.856;2023-07-02T06:24:09;14.63;;;4.75;;
31206;SDS011;17834;52.992;8.856;2023-07-02T06:26:34;12.00;;;4.93;;
31206;SDS011;17834;52.992;8.856;2023-07-02T06:29:00;15.10;;;5.30;;
31206;SDS011;17834;52.992;8.856;2023-07-02T06:31:25;14.02;;;5.20;;
31206;SDS011;17834;52.992;8.856;2023-07-02T06:33:51;13.93;;;5.18;;
31206;SDS011;17834;52.992;8.856;2023-07-02T06:36:17;10.13;;;4.28;;
31206;SDS011;17834;52.992;8.856;2023-07-02T06:38:43;9.98;;;4.35;;
31206;SDS011;17834;52.992;8.856;2023-07-02T06:41:08;13.35;;;4.13;;
31206;SDS011;17834;52.992;8.856;2023-07-02T06:43:34;11.32;;;5.07;;
31206;SDS011;17834;52.992;8.856;2023-07-02T06:45:59;16.85;;;5.45;;
31206;SDS011;17834;52.992;8.856;2023-07-02T06:48:25;15.70;;;5.32;;
31206;SDS011;17834;52.992;8.856;2023-07-02T06:50:50;14.23;;;5.40;;
31206;SDS011;17834;52.992;8.856;2023-07-02T06:53:16;13.43;;;5.38;;
31206;SDS011;17834;52.992;8.856;2023-07-02T06:55:41;12.73;;;4.80;;
31206;SDS011;17834;52.992;8.856;2023-07-02T06:58:07;9.23;;;4.88;;
31206;SDS011;17834;52.992;8.856;2023-07-02T07:00:33;12.10;;;4.60;;
31206;SDS011;17834;52.992;8.856;2023-07-02T07:03:00;12.95;;;5.88;;
31206;SDS011;17834;52.992;8.856;2023-07-02T07:05:27;10.93;;;5.18;;
31206;SDS011;17834;52.992;8.856;2023-07-02T07:07:54;15.25;;;5.15;;
31206;SDS011;17834;52.992;8.856;2023-07-02T07:10:19;16.70;;;5.28;;
31206;SDS011;17834;52.992;8.856;2023-07-02T07:12:45;12.63;;;4.68;;
31206;SDS011;17834;52.992;8.856;2023-07-02T07:15:10;13.27;;;4.85;;
31206;SDS011;17834;52.992;8.856;2023-07-02T07:17:36;19.00;;;5.60;;
31206;SDS011;17834;52.992;8.856;2023-07-02T07:20:02;15.57;;;5.28;;
31206;SDS011;17834;52.992;8.856;2023-07-02T07:22:30;14.30;;;5.13;;
31206;SDS011;17834;52.992;8.856;2023-07-02T07:24:55;18.75;;;5.88;;
31206;SDS011;17834;52.992;8.856;2023-07-02T07:27:21;13.57;;;4.45;;
31206;SDS011;17834;52.992;8.856;2023-07-02T07:29:46;13.38;;;4.15;;
31206;SDS011;17834;52.992;8.856;2023-07-02T07:32:12;14.02;;;4.60;;
31206;SDS011;17834;52.992;8.856;2023-07-02T07:34:37;15.65;;;4.60;;
31206;SDS011;17834;52.992;8.856;2023-07-02T07:37:03;11.35;;;4.85;;
31206;SDS011;17834;52.992;8.856;2023-07-02T07:39:29;17.48;;;5.18;;
31206;SDS011;17834;52.992;8.856;2023-07-02T07:41:55;10.15;;;4.75;;
31206;SDS011;17834;52.992;8.856;2023-07-02T07:44:20;14.57;;;4.95;;
31206;SDS011;17834;52.992;8.856;2023-07-02T07:46:46;13.43;;;4.85;;
31206;SDS011;17834;52.992;8.856;2023-07-02T07:49:12;14.00;;;4.07;;
31206;SDS011;17834;52.992;8.856;2023-07-02T07:51:38;10.02;;;4.15;;
31206;SDS011;17834;52.992;8.856;2023-07-02T07:54:04;11.77;;;4.68;;
31206;SDS011;17834;52.992;8.856;2023-07-02T07:56:29;14.68;;;4.18;;
31206;SDS011;17834;52.992;8.856;2023-07-02T07:58:55;9.93;;;4.28;;
31206;SDS011;17834;52.992;8.856;2023-07-02T08:01:21;10.45;;;5.07;;
31206;SDS011;17834;52.992;8.856;2023-07-02T08:03:46;14.68;;;4.40;;
31206;SDS011;17834;52.992;8.856;2023-07-02T08:06:11;11.43;;;4.45;;
31206;SDS011;17834;52.992;8.856;2023-07-02T08:08:37;12.82;;;4.20;;
31206;SDS011;17834;52.992;8.856;2023-07-02T08:11:03;13.60;;;4.07;;
31206;SDS011;17834;52.992;8.856;2023-07-02T08:13:28;11.85;;;3.83;;
31206;SDS011;17834;52.992;8.856;2023-07-02T08:15:53;13.70;;;4.80;;
31206;SDS011;17834;52.992;8.856;2023-07-02T08:18:19;13.20;;;4.68;;
31206;SDS011;17834;52.992;8.856;2023-07-02T08:20:45;11.88;;;4.05;;
31206;SDS011;17834;52.992;8.856;2023-07-02T08:23:10;14.18;;;3.67;;
31206;SDS011;17834;52.992;8.856;2023-07-02T08:25:36;8.38;;;3.60;;
31206;SDS011;17834;52.992;8.856;2023-07-02T08:28:02;10.07;;;3.83;;
31206;SDS011;17834;52.992;8.856;2023-07-02T08:30:28;12.55;;;4.32;;
31206;SDS011;17834;52.992;8.856;2023-07-02T08:32:53;12.23;;;4.00;;
31206;SDS011;17834;52.992;8.856;2023-07-02T08:35:20;16.70;;;3.92;;
31206;SDS011;17834;52.992;8.856;2023-07-02T08:37:45;12.40;;;3.83;;
31206;SDS011;17834;52.992;8.856;2023-07-02T08:40:17;11.30;;;3.80;;
31206;SDS011;17834;52.992;8.856;2023-07-02T08:42:47;15.05;;;3.88;;
31206;SDS011;17834;52.992;8.856;2023-07-02T08:45:13;13.55;;;4.18;;
31206;SDS011;17834;52.992;8.856;2023-07-02T08:47:40;12.38;;;4.25;;
31206;SDS011;17834;52.992;8.856;2023-07-02T08:50:06;11.13;;;4.28;;
31206;SDS011;17834;52.992;8.856;2023-07-02T08:52:31;11.68;;;3.75;;
31206;SDS011;17834;52.992;8.856;2023-07-02T08:54:57;15.00;;;4.50;;
31206;SDS011;17834;52.992;8.856;2023-07-02T08:57:22;10.27;;;3.80;;
31206;SDS011;17834;52.992;8.856;2023-07-02T08:59:48;13.18;;;4.35;;
31206;SDS011;17834;52.992;8.856;2023-07-02T09:02:16;11.02;;;4.40;;
31206;SDS011;17834;52.992;8.856;2023-07-02T09:04:42;15.02;;;4.38;;
31206;SDS011;17834;52.992;8.856;2023-07-02T09:07:08;11.93;;;4.03;;
31206;SDS011;17834;52.992;8.856;2023-07-02T09:09:44;14.85;;;4.68;;
31206;SDS011;17834;52.992;8.856;2023-07-02T09:12:26;13.63;;;4.15;;
31206;SDS011;17834;52.992;8.856;2023-07-02T09:17:37;10.30;;;4.40;;
31206;SDS011;17834;52.992;8.856;2023-07-02T09:20:04;15.93;;;4.47;;
31206;SDS011;17834;52.992;8.856;2023-07-02T09:22:33;13.20;;;3.97;;
31206;SDS011;17834;52.992;8.856;2023-07-02T09:25:00;14.30;;;4.28;;
31206;SDS011;17834;52.992;8.856;2023-07-02T09:27:39;13.63;;;4.03;;
31206;SDS011;17834;52.992;8.856;2023-07-02T09:30:10;11.95;;;4.32;;
31206;SDS011;17834;52.992;8.856;2023-07-02T09:32:43;15.10;;;5.53;;
31206;SDS011;17834;52.992;8.856;2023-07-02T09:35:10;13.77;;;4.85;;
31206;SDS011;17834;52.992;8.856;2023-07-02T09:37:36;12.98;;;5.15;;
31206;SDS011;17834;52.992;8.856;2023-07-02T09:40:03;14.88;;;4.53;;
31206;SDS011;17834;52.992;8.856;2023-07-02T09:42:32;12.68;;;4.20;;
31206;SDS011;17834;52.992;8.856;2023-07-02T09:45:00;10.15;;;3.88;;
31206;SDS011;17834;52.992;8.856;2023-07-02T09:47:27;12.65;;;4.03;;
31206;SDS011;17834;52.992;8.856;2023-07-02T09:49:55;14.55;;;4.45;;
31206;SDS011;17834;52.992;8.856;2023-07-02T09:52:24;12.93;;;4.38;;
31206;SDS011;17834;52.992;8.856;2023-07-02T09:54:51;12.25;;;4.18;;
31206;SDS011;17834;52.992;8.856;2023-07-02T09:57:16;11.30;;;3.78;;
31206;SDS011;17834;52.992;8.856;2023-07-02T09:59:42;12.95;;;4.05;;
31206;SDS011;17834;52.992;8.856;2023-07-02T10:02:09;9.93;;;3.85;;
31206;SDS011;17834;52.992;8.856;2023-07-02T10:04:41;12.73;;;4.35;;
31206;SDS011;17834;52.992;8.856;2023-07-02T10:07:08;10.10;;;3.67;;
31206;SDS011;17834;52.992;8.856;2023-07-02T10:09:35;16.63;;;4.90;;
31206;SDS011;17834;52.992;8.856;2023-07-02T10:12:00;12.27;;;5.07;;
31206;SDS011;17834;52.992;8.856;2023-07-02T10:14:26;11.70;;;4.32;;
31206;SDS011;17834;52.992;8.856;2023-07-02T10:16:52;10.43;;;3.92;;
31206;SDS011;17834;52.992;8.856;2023-07-02T10:19:19;11.30;;;3.90;;
31206;SDS011;17834;52.992;8.856;2023-07-02T10:21:45;10.27;;;3.45;;
31206;SDS011;17834;52.992;8.856;2023-07-02T10:24:15;12.18;;;3.83;;
31206;SDS011;17834;52.992;8.856;2023-07-02T10:26:51;10.63;;;4.95;;
31206;SDS011;17834;52.992;8.856;2023-07-02T10:29:21;9.35;;;3.55;;
31206;SDS011;17834;52.992;8.856;2023-07-02T10:31:49;12.20;;;4.25;;
31206;SDS011;17834;52.992;8.856;2023-07-02T10:34:16;11.65;;;5.13;;
31206;SDS011;17834;52.992;8.856;2023-07-02T10:36:55;13.85;;;4.60;;
31206;SDS011;17834;52.992;8.856;2023-07-02T10:39:21;13.48;;;4.82;;
31206;SDS011;17834;52.992;8.856;2023-07-02T10:41:46;11.13;;;4.68;;
31206;SDS011;17834;52.992;8.856;2023-07-02T10:44:11;11.70;;;3.70;;
31206;SDS011;17834;52.992;8.856;2023-07-02T10:46:47;10.27;;;3.30;;
31206;SDS011;17834;52.992;8.856;2023-07-02T10:49:13;7.75;;;3.25;;
31206;SDS011;17834;52.992;8.856;2023-07-02T10:51:43;14.80;;;3.83;;
31206;SDS011;17834;52.992;8.856;2023-07-02T10:54:08;7.40;;;3.03;;
31206;SDS011;17834;52.992;8.856;2023-07-02T10:56:34;9.48;;;3.42;;
31206;SDS011;17834;52.992;8.856;2023-07-02T10:59:00;9.38;;;3.17;;
31206;SDS011;17834;52.992;8.856;2023-07-02T11:01:26;9.73;;;3.30;;
31206;SDS011;17834;52.992;8.856;2023-07-02T11:03:59;8.95;;;3.13;;
31206;SDS011;17834;52.992;8.856;2023-07-02T11:06:30;13.05;;;3.65;;
31206;SDS011;17834;52.992;8.856;2023-07-02T11:08:58;9.88;;;3.53;;
31206;SDS011;17834;52.992;8.856;2023-07-02T11:11:24;8.57;;;3.58;;
31206;SDS011;17834;52.992;8.856;2023-07-02T11:13:50;11.60;;;3.15;;
31206;SDS011;17834;52.992;8.856;2023-07-02T11:16:17;9.07;;;3.28;;
31206;SDS011;17834;52.992;8.856;2023-07-02T11:18:49;5.00;;;2.20;;
31206;SDS011;17834;52.992;8.856;2023-07-02T11:21:15;8.02;;;3.33;;
31206;SDS011;17834;52.992;8.856;2023-07-02T11:23:41;8.02;;;2.22;;
31206;SDS011;17834;52.992;8.856;2023-07-02T11:26:06;6.97;;;2.53;;
31206;SDS011;17834;52.992;8.856;2023-07-02T11:28:32;7.07;;;2.33;;
31206;SDS011;17834;52.992;8.856;2023-07-02T11:30:59;5.40;;;2.00;;
31206;SDS011;17834;52.992;8.856;2023-07-02T11:33:37;6.25;;;2.25;;
31206;SDS011;17834;52.992;8.856;2023-07-02T11:36:03;8.13;;;2.22;;
31206;SDS011;17834;52.992;8.856;2023-07-02T11:38:30;5.65;;;1.95;;
31206;SDS011;17834;52.992;8.856;2023-07-02T11:40:56;8.15;;;2.35;;
31206;SDS011;17834;52.992;8.856;2023-07-02T11:43:22;7.45;;;2.03;;
31206;SDS011;17834;52.992;8.856;2023-07-02T11:45:47;5.47;;;1.85;;
31206;SDS011;17834;52.992;8.856;2023-07-02T11:48:13;11.10;;;2.10;;
31206;SDS011;17834;52.992;8.856;2023-07-02T11:50:38;6.78;;;1.85;;
31206;SDS011;17834;52.992;8.856;2023-07-02T11:53:04;9.23;;;2.10;;
31206;SDS011;17834;52.992;8.856;2023-07-02T11:55:29;4.32;;;1.50;;
31206;SDS011;17834;52.992;8.856;2023-07-02T11:57:55;6.82;;;1.90;;
31206;SDS011;17834;52.992;8.856;2023-07-02T12:00:21;6.00;;;1.58;;
31206;SDS011;17834;52.992;8.856;2023-07-02T12:02:46;5.78;;;2.10;;
31206;SDS011;17834;52.992;8.856;2023-07-02T12:05:13;4.68;;;1.73;;
31206;SDS011;17834;52.992;8.856;2023-07-02T12:07:38;6.00;;;1.67;;
31206;SDS011;17834;52.992;8.856;2023-07-02T12:10:04;4.30;;;2.10;;
31206;SDS011;17834;52.992;8.856;2023-07-02T12:12:30;8.80;;;2.00;;
31206;SDS011;17834;52.992;8.856;2023-07-02T12:14:56;6.43;;;1.98;;
31206;SDS011;17834;52.992;8.856;2023-07-02T12:17:21;4.82;;;2.10;;
31206;SDS011;17834;52.992;8.856;2023-07-02T12:19:46;3.45;;;1.90;;
31206;SDS011;17834;52.992;8.856;2023-07-02T12:22:12;7.18;;;2.15;;
31206;SDS011;17834;52.992;8.856;2023-07-02T12:24:41;7.95;;;2.08;;
31206;SDS011;17834;52.992;8.856;2023-07-02T12:27:07;8.23;;;2.33;;
31206;SDS011;17834;52.992;8.856;2023-07-02T12:29:32;6.45;;;2.08;;
31206;SDS011;17834;52.992;8.856;2023-07-02T12:31:58;6.55;;;1.80;;
31206;SDS011;17834;52.992;8.856;2023-07-02T12:34:24;8.68;;;2.15;;
31206;SDS011;17834;52.992;8.856;2023-07-02T12:36:49;5.80;;;2.03;;
31206;SDS011;17834;52.992;8.856;2023-07-02T12:39:14;9.68;;;2.47;;
31206;SDS011;17834;52.992;8.856;2023-07-02T12:41:40;6.07;;;2.10;;
31206;SDS011;17834;52.992;8.856;2023-07-02T12:44:06;6.53;;;2.30;;
31206;SDS011;17834;52.992;8.856;2023-07-02T12:46:31;6.95;;;2.42;;
31206;SDS011;17834;52.992;8.856;2023-07-02T12:48:57;9.73;;;2.60;;
31206;SDS011;17834;52.992;8.856;2023-07-02T12:51:22;11.60;;;2.85;;
31206;SDS011;17834;52.992;8.856;2023-07-02T12:53:48;9.75;;;2.33;;
31206;SDS011;17834;52.992;8.856;2023-07-02T12:56:13;6.45;;;2.45;;
31206;SDS011;17834;52.992;8.856;2023-07-02T12:58:39;6.75;;;2.58;;
31206;SDS011;17834;52.992;8.856;2023-07-02T13:01:04;6.97;;;3.10;;
31206;SDS011;17834;52.992;8.856;2023-07-02T13:03:30;7.10;;;3.20;;
31206;SDS011;17834;52.992;8.856;2023-07-02T13:05:55;6.22;;;2.45;;
31206;SDS011;17834;52.992;8.856;2023-07-02T13:08:21;6.20;;;2.55;;
31206;SDS011;17834;52.992;8.856;2023-07-02T13:10:46;5.65;;;2.00;;
31206;SDS011;17834;52.992;8.856;2023-07-02T13:13:12;5.22;;;2.30;;
31206;SDS011;17834;52.992;8.856;2023-07-02T13:15:37;4.45;;;2.05;;
31206;SDS011;17834;52.992;8.856;2023-07-02T13:18:03;9.20;;;2.25;;
31206;SDS011;17834;52.992;8.856;2023-07-02T13:20:29;8.95;;;2.45;;
31206;SDS011;17834;52.992;8.856;2023-07-02T13:22:55;7.90;;;2.28;;
31206;SDS011;17834;52.992;8.856;2023-07-02T13:25:20;7.10;;;1.88;;
31206;SDS011;17834;52.992;8.856;2023-07-02T13:27:46;5.65;;;2.10;;
31206;SDS011;17834;52.992;8.856;2023-07-02T13:30:11;6.25;;;2.03;;
31206;SDS011;17834;52.992;8.856;2023-07-02T13:32:37;6.40;;;2.40;;
31206;SDS011;17834;52.992;8.856;2023-07-02T13:35:02;6.55;;;2.20;;
31206;SDS011;17834;52.992;8.856;2023-07-02T13:37:28;5.78;;;1.90;;
31206;SDS011;17834;52.992;8.856;2023-07-02T13:39:54;6.70;;;2.05;;
31206;SDS011;17834;52.992;8.856;2023-07-02T13:42:19;4.78;;;1.95;;
31206;SDS011;17834;52.992;8.856;2023-07-02T13:44:45;6.63;;;2.47;;
31206;SDS011;17834;52.992;8.856;2023-07-02T13:47:10;6.18;;;2.45;;
31206;SDS011;17834;52.992;8.856;2023-07-02T13:49:36;5.15;;;1.83;;
31206;SDS011;17834;52.992;8.856;2023-07-02T13:52:02;12.85;;;3.47;;
31206;SDS011;17834;52.992;8.856;2023-07-02T13:54:28;5.53;;;1.83;;
31206;SDS011;17834;52.992;8.856;2023-07-02T13:56:55;4.47;;;2.08;;
31206;SDS011;17834;52.992;8.856;2023-07-02T13:59:21;9.27;;;1.98;;
31206;SDS011;17834;52.992;8.856;2023-07-02T14:01:46;8.60;;;2.10;;
31206;SDS011;17834;52.992;8.856;2023-07-02T14:04:13;7.32;;;1.90;;
31206;SDS011;17834;52.992;8.856;2023-07-02T14:06:40;6.18;;;2.05;;
31206;SDS011;17834;52.992;8.856;2023-07-02T14:09:06;5.80;;;2.10;;
31206;SDS011;17834;52.992;8.856;2023-07-02T14:11:32;7.57;;;2.88;;
31206;SDS011;17834;52.992;8.856;2023-07-02T14:13:59;7.00;;;2.45;;
31206;SDS011;17834;52.992;8.856;2023-07-02T14:16:24;6.78;;;2.40;;
31206;SDS011;17834;52.992;8.856;2023-07-02T14:18:50;6.60;;;2.30;;
31206;SDS011;17834;52.992;8.856;2023-07-02T14:21:16;7.78;;;2.33;;
31206;SDS011;17834;52.992;8.856;2023-07-02T14:23:42;7.55;;;2.30;;
31206;SDS011;17834;52.992;8.856;2023-07-02T14:26:08;8.95;;;3.20;;
31206;SDS011;17834;52.992;8.856;2023-07-02T14:28:34;8.10;;;2.80;;
31206;SDS011;17834;52.992;8.856;2023-07-02T14:31:00;5.68;;;2.20;;
31206;SDS011;17834;52.992;8.856;2023-07-02T14:33:27;8.25;;;2.53;;
31206;SDS011;17834;52.992;8.856;2023-07-02T14:35:54;9.05;;;2.70;;
31206;SDS011;17834;52.992;8.856;2023-07-02T14:38:19;7.63;;;3.25;;
31206;SDS011;17834;52.992;8.856;2023-07-02T14:40:47;7.85;;;2.30;;
31206;SDS011;17834;52.992;8.856;2023-07-02T14:43:13;12.45;;;2.78;;